sensor_id;sensor_type;location;lat;lon;timestamp;pressure;altitude;pressure_sealevel;temperature;humidity
47897;BME280;39629;51.400;5.494;2023-12-14T00:01:56;100508.19;;;6.92;100.00
47897;BME280;39629;51.400;5.494;2023-12-14T00:06:59;100521.22;;;6.84;100.00
47897;BME280;39629;51.400;5.494;2023-12-14T00:12:01;100532.50;;;6.75;100.00
47897;BME280;39629;51.400;5.494;2023-12-14T00:17:03;100544.59;;;6.62;100.00
47897;BME280;39629;51.400;5.494;2023-12-14T00:22:06;100560.19;;;6.55;100.00
47897;BME280;39629;51.400;5.494;2023-12-14T00:27:08;100566.19;;;6.44;100.00
47897;BME280;39629;51.400;5.494;2023-12-14T00:32:10;100568.72;;;6.37;100.00
47897;BME280;39629;51.400;5.494;2023-12-14T00:37:13;100580.00;;;6.34;100.00
47897;BME280;39629;51.400;5.494;2023-12-14T00:42:14;100603.50;;;6.33;100.00
47897;BME280;39629;51.400;5.494;2023-12-14T00:47:16;100620.09;;;6.33;100.00
47897;BME280;39629;51.400;5.494;2023-12-14T00:52:19;100636.50;;;6.23;100.00
47897;BME280;39629;51.400;5.494;2023-12-14T00:57:21;100639.91;;;6.14;100.00
47897;BME280;39629;51.400;5.494;2023-12-14T01:02:22;100646.78;;;6.07;100.00
47897;BME280;39629;51.400;5.494;2023-12-14T01:07:25;100654.66;;;6.12;100.00
47897;BME280;39629;51.400;5.494;2023-12-14T01:12:27;100658.06;;;6.05;100.00
47897;BME280;39629;51.400;5.494;2023-12-14T01:17:28;100665.84;;;6.00;100.00
47897;BME280;39629;51.400;5.494;2023-12-14T01:22:31;100664.88;;;5.92;100.00
47897;BME280;39629;51.400;5.494;2023-12-14T01:27:33;100683.97;;;5.86;100.00
47897;BME280;39629;51.400;5.494;2023-12-14T01:32:35;100690.66;;;5.69;100.00
47897;BME280;39629;51.400;5.494;2023-12-14T01:37:38;100710.69;;;5.70;100.00
47897;BME280;39629;51.400;5.494;2023-12-14T01:42:40;100723.53;;;5.54;100.00
47897;BME280;39629;51.400;5.494;2023-12-14T01:47:41;100745.94;;;5.41;100.00
47897;BME280;39629;51.400;5.494;2023-12-14T01:52:44;100742.31;;;5.33;100.00
47897;BME280;39629;51.400;5.494;2023-12-14T01:57:46;100752.75;;;5.33;100.00
47897;BME280;39629;51.400;5.494;2023-12-14T02:02:48;100765.69;;;5.27;100.00
47897;BME280;39629;51.400;5.494;2023-12-14T02:07:51;100776.97;;;5.26;100.00
47897;BME280;39629;51.400;5.494;2023-12-14T02:12:53;100780.38;;;5.22;100.00
47897;BME280;39629;51.400;5.494;2023-12-14T02:17:55;100792.44;;;5.15;100.00
47897;BME280;39629;51.400;5.494;2023-12-14T02:22:58;100797.63;;;5.14;100.00
47897;BME280;39629;51.400;5.494;2023-12-14T02:27:59;100822.63;;;5.02;100.00
47897;BME280;39629;51.400;5.494;2023-12-14T02:33:01;100826.13;;;5.03;100.00
47897;BME280;39629;51.400;5.494;2023-12-14T02:38:04;100834.03;;;5.07;100.00
47897;BME280;39629;51.400;5.494;2023-12-14T02:43:06;100832.97;;;4.98;100.00
47897;BME280;39629;51.400;5.494;2023-12-14T02:48:07;100839.94;;;4.97;100.00
47897;BME280;39629;51.400;5.494;2023-12-14T02:53:10;100856.50;;;5.01;100.00
47897;BME280;39629;51.400;5.494;2023-12-14T02:58:12;100869.44;;;4.96;100.00
47897;BME280;39629;51.400;5.494;2023-12-14T03:03:14;100865.06;;;4.95;100.00
47897;BME280;39629;51.400;5.494;2023-12-14T03:08:17;100882.44;;;4.93;100.00
47897;BME280;39629;51.400;5.494;2023-12-14T03:13:18;100884.97;;;4.90;100.00
47897;BME280;39629;51.400;5.494;2023-12-14T03:18:20;100891.13;;;4.93;100.00
47897;BME280;39629;51.400;5.494;2023-12-14T03:23:23;100900.69;;;4.93;100.00
47897;BME280;39629;51.400;5.494;2023-12-14T03:28:24;100904.09;;;4.89;100.00
47897;BME280;39629;51.400;5.494;2023-12-14T03:33:26;100909.97;;;4.82;100.00
47897;BME280;39629;51.400;5.494;2023-12-14T03:38:29;100909.22;;;4.86;100.00
47897;BME280;39629;51.400;5.494;2023-12-14T03:43:31;100910.81;;;4.79;100.00
47897;BME280;39629;51.400;5.494;2023-12-14T03:48:33;100916.00;;;4.78;100.00
47897;BME280;39629;51.400;5.494;2023-12-14T03:53:36;100925.63;;;4.82;100.00
47897;BME280;39629;51.400;5.494;2023-12-14T03:58:37;100937.81;;;4.81;100.00
47897;BME280;39629;51.400;5.494;2023-12-14T04:03:39;100946.41;;;4.77;100.00
47897;BME280;39629;51.400;5.494;2023-12-14T04:08:42;100949.09;;;4.82;100.00
47897;BME280;39629;51.400;5.494;2023-12-14T04:13:44;100946.41;;;4.77;100.00
47897;BME280;39629;51.400;5.494;2023-12-14T04:18:46;100949.72;;;4.70;100.00
47897;BME280;39629;51.400;5.494;2023-12-14T04:23:48;100945.31;;;4.67;100.00
47897;BME280;39629;51.400;5.494;2023-12-14T04:28:50;100954.19;;;4.75;100.00
47897;BME280;39629;51.400;5.494;2023-12-14T04:33:52;100965.34;;;4.70;100.00
47897;BME280;39629;51.400;5.494;2023-12-14T04:38:55;100978.38;;;4.68;100.00
47897;BME280;39629;51.400;5.494;2023-12-14T04:43:56;100990.63;;;4.72;100.00
47897;BME280;39629;51.400;5.494;2023-12-14T04:48:58;101002.81;;;4.73;100.00
47897;BME280;39629;51.400;5.494;2023-12-14T04:54:01;101020.97;;;4.70;100.00
47897;BME280;39629;51.400;5.494;2023-12-14T04:59:04;101028.06;;;4.76;100.00
47897;BME280;39629;51.400;5.494;2023-12-14T05:04:05;101034.69;;;4.62;100.00
47897;BME280;39629;51.400;5.494;2023-12-14T05:09:08;101050.31;;;4.62;100.00
47897;BME280;39629;51.400;5.494;2023-12-14T05:14:12;101054.69;;;4.63;100.00
47897;BME280;39629;51.400;5.494;2023-12-14T05:19:14;101063.38;;;4.63;100.00
47897;BME280;39629;51.400;5.494;2023-12-14T05:24:17;101089.50;;;4.65;100.00
47897;BME280;39629;51.400;5.494;2023-12-14T05:29:18;101090.44;;;4.67;100.00
47897;BME280;39629;51.400;5.494;2023-12-14T05:34:22;101109.50;;;4.66;100.00
47897;BME280;39629;51.400;5.494;2023-12-14T05:39:25;101120.81;;;4.66;100.00
47897;BME280;39629;51.400;5.494;2023-12-14T05:44:26;101125.16;;;4.66;100.00
47897;BME280;39629;51.400;5.494;2023-12-14T05:49:28;101131.22;;;4.66;100.00
47897;BME280;39629;51.400;5.494;2023-12-14T05:54:31;101149.38;;;4.62;100.00
47897;BME280;39629;51.400;5.494;2023-12-14T05:59:32;101165.00;;;4.62;100.00
47897;BME280;39629;51.400;5.494;2023-12-14T06:04:34;101185.03;;;4.63;100.00
47897;BME280;39629;51.400;5.494;2023-12-14T06:09:39;101177.25;;;4.64;100.00
47897;BME280;39629;51.400;5.494;2023-12-14T06:14:40;101187.63;;;4.63;100.00
47897;BME280;39629;51.400;5.494;2023-12-14T06:19:42;101191.13;;;4.63;100.00
47897;BME280;39629;51.400;5.494;2023-12-14T06:24:45;101207.69;;;4.65;100.00
47897;BME280;39629;51.400;5.494;2023-12-14T06:29:47;101204.97;;;4.62;100.00
47897;BME280;39629;51.400;5.494;2023-12-14T06:34:48;101206.72;;;4.62;100.00
47897;BME280;39629;51.400;5.494;2023-12-14T06:39:51;101227.66;;;4.65;100.00
47897;BME280;39629;51.400;5.494;2023-12-14T06:44:53;101229.34;;;4.63;100.00
47897;BME280;39629;51.400;5.494;2023-12-14T06:49:55;101239.84;;;4.66;100.00
47897;BME280;39629;51.400;5.494;2023-12-14T06:54:58;101239.03;;;4.67;100.00
47897;BME280;39629;51.400;5.494;2023-12-14T07:00:00;101245.06;;;4.66;100.00
47897;BME280;39629;51.400;5.494;2023-12-14T07:05:02;101246.72;;;4.64;100.00
47897;BME280;39629;51.400;5.494;2023-12-14T07:10:06;101263.34;;;4.67;100.00
47897;BME280;39629;51.400;5.494;2023-12-14T07:15:08;101277.22;;;4.66;100.00
47897;BME280;39629;51.400;5.494;2023-12-14T07:20:11;101282.44;;;4.66;100.00
47897;BME280;39629;51.400;5.494;2023-12-14T07:25:14;101296.22;;;4.62;100.00
47897;BME280;39629;51.400;5.494;2023-12-14T07:30:16;101317.06;;;4.62;100.00
47897;BME280;39629;51.400;5.494;2023-12-14T07:35:18;101320.63;;;4.64;100.00
47897;BME280;39629;51.400;5.494;2023-12-14T07:40:21;101334.50;;;4.63;100.00
47897;BME280;39629;51.400;5.494;2023-12-14T07:45:22;101330.66;;;4.50;100.00
47897;BME280;39629;51.400;5.494;2023-12-14T07:50:25;101331.31;;;4.43;100.00
47897;BME280;39629;51.400;5.494;2023-12-14T07:55:28;101351.28;;;4.44;100.00
47897;BME280;39629;51.400;5.494;2023-12-14T08:00:30;101363.41;;;4.42;100.00
47897;BME280;39629;51.400;5.494;2023-12-14T08:05:31;101381.56;;;4.39;100.00
47897;BME280;39629;51.400;5.494;2023-12-14T08:10:34;101397.06;;;4.36;100.00
47897;BME280;39629;51.400;5.494;2023-12-14T08:15:36;101393.56;;;4.34;100.00
47897;BME280;39629;51.400;5.494;2023-12-14T08:20:38;101403.97;;;4.34;100.00
47897;BME280;39629;51.400;5.494;2023-12-14T08:25:41;101422.25;;;4.35;100.00
47897;BME280;39629;51.400;5.494;2023-12-14T08:30:42;101414.69;;;4.43;100.00
47897;BME280;39629;51.400;5.494;2023-12-14T08:35:44;101426.00;;;4.43;100.00
47897;BME280;39629;51.400;5.494;2023-12-14T08:40:47;101438.19;;;4.45;100.00
47897;BME280;39629;51.400;5.494;2023-12-14T08:45:49;101451.97;;;4.40;100.00
47897;BME280;39629;51.400;5.494;2023-12-14T08:50:53;101445.13;;;4.44;100.00
47897;BME280;39629;51.400;5.494;2023-12-14T08:55:56;101463.19;;;4.38;100.00
47897;BME280;39629;51.400;5.494;2023-12-14T09:00:58;101478.13;;;4.43;100.00
47897;BME280;39629;51.400;5.494;2023-12-14T09:05:59;101484.81;;;4.35;100.00
47897;BME280;39629;51.400;5.494;2023-12-14T09:11:05;101487.41;;;4.35;100.00
47897;BME280;39629;51.400;5.494;2023-12-14T09:16:07;101489.28;;;4.39;100.00
47897;BME280;39629;51.400;5.494;2023-12-14T09:21:09;101509.31;;;4.40;100.00
47897;BME280;39629;51.400;5.494;2023-12-14T09:26:12;101524.22;;;4.45;100.00
47897;BME280;39629;51.400;5.494;2023-12-14T09:31:14;101528.59;;;4.46;100.00
47897;BME280;39629;51.400;5.494;2023-12-14T09:36:16;101529.47;;;4.46;100.00
47897;BME280;39629;51.400;5.494;2023-12-14T09:41:19;101552.88;;;4.45;100.00
47897;BME280;39629;51.400;5.494;2023-12-14T09:46:21;101561.56;;;4.45;100.00
47897;BME280;39629;51.400;5.494;2023-12-14T09:51:24;101575.84;;;4.56;100.00
47897;BME280;39629;51.400;5.494;2023-12-14T09:56:28;101575.50;;;4.46;100.00
47897;BME280;39629;51.400;5.494;2023-12-14T10:01:30;101588.72;;;4.52;100.00
47897;BME280;39629;51.400;5.494;2023-12-14T10:06:32;101587.91;;;4.53;100.00
47897;BME280;39629;51.400;5.494;2023-12-14T10:11:35;101590.38;;;4.50;100.00
47897;BME280;39629;51.400;5.494;2023-12-14T10:16:37;101610.41;;;4.51;100.00
47897;BME280;39629;51.400;5.494;2023-12-14T10:21:39;101622.13;;;4.64;100.00
47897;BME280;39629;51.400;5.494;2023-12-14T10:26:44;101622.50;;;4.74;100.00
47897;BME280;39629;51.400;5.494;2023-12-14T10:31:47;101628.50;;;4.72;100.00
47897;BME280;39629;51.400;5.494;2023-12-14T10:36:49;101637.13;;;4.69;100.00
47897;BME280;39629;51.400;5.494;2023-12-14T10:41:53;101633.78;;;4.73;100.00
47897;BME280;39629;51.400;5.494;2023-12-14T10:46:56;101628.78;;;4.80;100.00
47897;BME280;39629;51.400;5.494;2023-12-14T10:51:59;101634.03;;;4.81;100.00
47897;BME280;39629;51.400;5.494;2023-12-14T10:57:05;101639.09;;;4.76;100.00
47897;BME280;39629;51.400;5.494;2023-12-14T11:02:09;101642.91;;;4.86;100.00
47897;BME280;39629;51.400;5.494;2023-12-14T11:07:12;101643.22;;;4.70;100.00
47897;BME280;39629;51.400;5.494;2023-12-14T11:12:19;101650.16;;;4.95;100.00
47897;BME280;39629;51.400;5.494;2023-12-14T11:17:22;101658.06;;;4.98;100.00
47897;BME280;39629;51.400;5.494;2023-12-14T11:22:26;101674.09;;;4.83;100.00
47897;BME280;39629;51.400;5.494;2023-12-14T11:27:30;101673.53;;;4.92;100.00
47897;BME280;39629;51.400;5.494;2023-12-14T11:32:32;101680.97;;;5.07;100.00
47897;BME280;39629;51.400;5.494;2023-12-14T11:37:34;101690.41;;;5.03;100.00
47897;BME280;39629;51.400;5.494;2023-12-14T11:42:37;101695.59;;;5.02;100.00
47897;BME280;39629;51.400;5.494;2023-12-14T11:47:39;101689.69;;;4.82;100.00
47897;BME280;39629;51.400;5.494;2023-12-14T11:52:41;101694.28;;;4.89;100.00
47897;BME280;39629;51.400;5.494;2023-12-14T11:57:47;101691.25;;;4.76;100.00
47897;BME280;39629;51.400;5.494;2023-12-14T12:02:48;101698.66;;;4.90;100.00
47897;BME280;39629;51.400;5.494;2023-12-14T12:07:57;101704.09;;;4.96;100.00
47897;BME280;39629;51.400;5.494;2023-12-14T12:13:00;101701.72;;;5.04;100.00
47897;BME280;39629;51.400;5.494;2023-12-14T12:18:05;101690.00;;;4.91;100.00
47897;BME280;39629;51.400;5.494;2023-12-14T12:23:06;101698.78;;;4.93;100.00
47897;BME280;39629;51.400;5.494;2023-12-14T12:28:10;101699.50;;;4.89;100.00
47897;BME280;39629;51.400;5.494;2023-12-14T12:33:11;101706.28;;;4.84;100.00
47897;BME280;39629;51.400;5.494;2023-12-14T12:38:13;101712.03;;;4.99;100.00
47897;BME280;39629;51.400;5.494;2023-12-14T12:43:17;101713.56;;;4.94;100.00
47897;BME280;39629;51.400;5.494;2023-12-14T12:48:19;101729.50;;;5.02;100.00
47897;BME280;39629;51.400;5.494;2023-12-14T12:53:21;101737.91;;;4.93;100.00
47897;BME280;39629;51.400;5.494;2023-12-14T12:58:24;101733.84;;;5.01;100.00
47897;BME280;39629;51.400;5.494;2023-12-14T13:03:26;101743.66;;;5.08;100.00
47897;BME280;39629;51.400;5.494;2023-12-14T13:08:27;101749.59;;;5.04;100.00
47897;BME280;39629;51.400;5.494;2023-12-14T13:13:30;101756.00;;;5.14;100.00
47897;BME280;39629;51.400;5.494;2023-12-14T13:18:32;101760.13;;;5.33;100.00
47897;BME280;39629;51.400;5.494;2023-12-14T13:23:34;101764.50;;;5.34;100.00
47897;BME280;39629;51.400;5.494;2023-12-14T13:28:37;101778.00;;;5.21;100.00
47897;BME280;39629;51.400;5.494;2023-12-14T13:33:38;101782.09;;;5.14;100.00
47897;BME280;39629;51.400;5.494;2023-12-14T13:38:41;101785.22;;;5.30;100.00
47897;BME280;39629;51.400;5.494;2023-12-14T13:43:44;101798.28;;;5.30;100.00
47897;BME280;39629;51.400;5.494;2023-12-14T13:48:46;101802.50;;;5.26;100.00
47897;BME280;39629;51.400;5.494;2023-12-14T13:53:48;101806.06;;;5.28;100.00
47897;BME280;39629;51.400;5.494;2023-12-14T13:58:51;101815.97;;;5.38;100.00
47897;BME280;39629;51.400;5.494;2023-12-14T14:03:53;101804.50;;;5.33;100.00
47897;BME280;39629;51.400;5.494;2023-12-14T14:08:54;101814.00;;;5.31;100.00
47897;BME280;39629;51.400;5.494;2023-12-14T14:13:57;101824.91;;;5.45;100.00
47897;BME280;39629;51.400;5.494;2023-12-14T14:18:59;101838.53;;;5.36;100.00
47897;BME280;39629;51.400;5.494;2023-12-14T14:24:01;101843.75;;;5.36;100.00
47897;BME280;39629;51.400;5.494;2023-12-14T14:29:04;101848.31;;;5.42;100.00
47897;BME280;39629;51.400;5.494;2023-12-14T14:34:05;101855.03;;;5.35;100.00
47897;BME280;39629;51.400;5.494;2023-12-14T14:39:07;101872.47;;;5.36;100.00
47897;BME280;39629;51.400;5.494;2023-12-14T14:44:10;101882.56;;;5.27;100.00
47897;BME280;39629;51.400;5.494;2023-12-14T14:49:12;101884.13;;;5.22;100.00
47897;BME280;39629;51.400;5.494;2023-12-14T14:54:14;101898.19;;;5.25;100.00
47897;BME280;39629;51.400;5.494;2023-12-14T14:59:16;101891.13;;;5.23;100.00
47897;BME280;39629;51.400;5.494;2023-12-14T15:04:18;101906.69;;;5.20;100.00
47897;BME280;39629;51.400;5.494;2023-12-14T15:09:20;101902.13;;;5.14;100.00
47897;BME280;39629;51.400;5.494;2023-12-14T15:14:23;101926.50;;;5.15;100.00
47897;BME280;39629;51.400;5.494;2023-12-14T15:19:24;101926.28;;;5.08;100.00
47897;BME280;39629;51.400;5.494;2023-12-14T15:24:26;101935.00;;;5.09;100.00
47897;BME280;39629;51.400;5.494;2023-12-14T15:29:29;101939.34;;;5.08;100.00
47897;BME280;39629;51.400;5.494;2023-12-14T15:34:31;101944.50;;;5.07;100.00
47897;BME280;39629;51.400;5.494;2023-12-14T15:39:32;101950.47;;;5.04;100.00
47897;BME280;39629;51.400;5.494;2023-12-14T15:44:35;101953.91;;;5.03;100.00
47897;BME280;39629;51.400;5.494;2023-12-14T15:49:37;101961.84;;;5.06;100.00
47897;BME280;39629;51.400;5.494;2023-12-14T15:54:39;101972.84;;;4.98;100.00
47897;BME280;39629;51.400;5.494;2023-12-14T15:59:42;101976.75;;;4.86;100.00
47897;BME280;39629;51.400;5.494;2023-12-14T16:04:43;101972.41;;;4.87;100.00
47897;BME280;39629;51.400;5.494;2023-12-14T16:09:45;102000.88;;;4.81;100.00
47897;BME280;39629;51.400;5.494;2023-12-14T16:14:49;102002.53;;;4.79;100.00
47897;BME280;39629;51.400;5.494;2023-12-14T16:19:51;102009.41;;;4.76;100.00
47897;BME280;39629;51.400;5.494;2023-12-14T16:24:53;102018.13;;;4.77;100.00
47897;BME280;39629;51.400;5.494;2023-12-14T16:29:56;102020.66;;;4.75;100.00
47897;BME280;39629;51.400;5.494;2023-12-14T16:34:58;102026.47;;;4.68;100.00
47897;BME280;39629;51.400;5.494;2023-12-14T16:40:00;102034.47;;;4.73;100.00
47897;BME280;39629;51.400;5.494;2023-12-14T16:45:05;102032.63;;;4.70;100.00
47897;BME280;39629;51.400;5.494;2023-12-14T16:50:07;102032.63;;;4.70;100.00
47897;BME280;39629;51.400;5.494;2023-12-14T16:55:09;102040.78;;;4.57;100.00
47897;BME280;39629;51.400;5.494;2023-12-14T17:00:13;102039.94;;;4.58;100.00
47897;BME280;39629;51.400;5.494;2023-12-14T17:05:15;102055.34;;;4.52;100.00
47897;BME280;39629;51.400;5.494;2023-12-14T17:10:17;102051.91;;;4.53;100.00
47897;BME280;39629;51.400;5.494;2023-12-14T17:15:20;102068.44;;;4.53;100.00
47897;BME280;39629;51.400;5.494;2023-12-14T17:20:22;102078.09;;;4.56;100.00
47897;BME280;39629;51.400;5.494;2023-12-14T17:25:23;102080.53;;;4.51;100.00
47897;BME280;39629;51.400;5.494;2023-12-14T17:30:26;102087.38;;;4.49;100.00
47897;BME280;39629;51.400;5.494;2023-12-14T17:35:29;102084.84;;;4.51;100.00
47897;BME280;39629;51.400;5.494;2023-12-14T17:40:31;102091.72;;;4.49;100.00
47897;BME280;39629;51.400;5.494;2023-12-14T17:45:34;102087.38;;;4.49;100.00
47897;BME280;39629;51.400;5.494;2023-12-14T17:50:36;102087.44;;;4.51;100.00
47897;BME280;39629;51.400;5.494;2023-12-14T17:55:38;102091.03;;;4.53;100.00
47897;BME280;39629;51.400;5.494;2023-12-14T18:00:41;102095.13;;;4.48;100.00
47897;BME280;39629;51.400;5.494;2023-12-14T18:05:42;102095.38;;;4.54;100.00
47897;BME280;39629;51.400;5.494;2023-12-14T18:10:45;102109.28;;;4.53;100.00
47897;BME280;39629;51.400;5.494;2023-12-14T18:15:48;102107.41;;;4.50;100.00
47897;BME280;39629;51.400;5.494;2023-12-14T18:20:50;102107.47;;;4.52;100.00
47897;BME280;39629;51.400;5.494;2023-12-14T18:25:52;102115.94;;;4.46;100.00
47897;BME280;39629;51.400;5.494;2023-12-14T18:30:54;102118.53;;;4.46;100.00
47897;BME280;39629;51.400;5.494;2023-12-14T18:35:56;102131.50;;;4.45;100.00
47897;BME280;39629;51.400;5.494;2023-12-14T18:40:58;102142.88;;;4.47;100.00
47897;BME280;39629;51.400;5.494;2023-12-14T18:46:01;102153.25;;;4.45;100.00
47897;BME280;39629;51.400;5.494;2023-12-14T18:51:03;102165.97;;;4.37;100.00
47897;BME280;39629;51.400;5.494;2023-12-14T18:56:06;102172.06;;;4.38;100.00
47897;BME280;39629;51.400;5.494;2023-12-14T19:01:11;102171.16;;;4.37;100.00
47897;BME280;39629;51.400;5.494;2023-12-14T19:06:13;102176.22;;;4.34;100.00
47897;BME280;39629;51.400;5.494;2023-12-14T19:11:16;102173.56;;;4.33;100.00
47897;BME280;39629;51.400;5.494;2023-12-14T19:16:24;102182.97;;;4.29;100.00
47897;BME280;39629;51.400;5.494;2023-12-14T19:21:26;102191.47;;;4.25;100.00
47897;BME280;39629;51.400;5.494;2023-12-14T19:26:27;102196.00;;;4.29;100.00
47897;BME280;39629;51.400;5.494;2023-12-14T19:31:30;102201.97;;;4.27;100.00
47897;BME280;39629;51.400;5.494;2023-12-14T19:36:32;102221.09;;;4.27;100.00
47897;BME280;39629;51.400;5.494;2023-12-14T19:41:37;102221.91;;;4.26;100.00
47897;BME280;39629;51.400;5.494;2023-12-14T19:46:40;102224.38;;;4.23;100.00
47897;BME280;39629;51.400;5.494;2023-12-14T19:51:41;102227.78;;;4.22;100.00
47897;BME280;39629;51.400;5.494;2023-12-14T19:56:44;102228.41;;;4.16;100.00
47897;BME280;39629;51.400;5.494;2023-12-14T20:01:47;102231.19;;;4.19;100.00
47897;BME280;39629;51.400;5.494;2023-12-14T20:06:49;102240.63;;;4.17;100.00
47897;BME280;39629;51.400;5.494;2023-12-14T20:11:52;102251.66;;;4.12;100.00
47897;BME280;39629;51.400;5.494;2023-12-14T20:16:55;102255.22;;;4.14;100.00
47897;BME280;39629;51.400;5.494;2023-12-14T20:21:57;102265.19;;;4.22;100.00
47897;BME280;39629;51.400;5.494;2023-12-14T20:26:59;102262.22;;;4.15;100.00
47897;BME280;39629;51.400;5.494;2023-12-14T20:32:02;102257.13;;;4.18;100.00
47897;BME280;39629;51.400;5.494;2023-12-14T20:37:04;102278.53;;;4.11;100.00
47897;BME280;39629;51.400;5.494;2023-12-14T20:42:05;102272.13;;;4.04;100.00
47897;BME280;39629;51.400;5.494;2023-12-14T20:47:09;102281.31;;;3.96;100.00
47897;BME280;39629;51.400;5.494;2023-12-14T20:52:10;102287.41;;;3.96;100.00
47897;BME280;39629;51.400;5.494;2023-12-14T20:57:12;102300.56;;;3.99;100.00
47897;BME280;39629;51.400;5.494;2023-12-14T21:02:15;102305.56;;;4.13;100.00
47897;BME280;39629;51.400;5.494;2023-12-14T21:07:17;102315.38;;;4.18;100.00
47897;BME280;39629;51.400;5.494;2023-12-14T21:12:19;102320.66;;;4.20;100.00
47897;BME280;39629;51.400;5.494;2023-12-14T21:17:25;102321.59;;;4.22;100.00
47897;BME280;39629;51.400;5.494;2023-12-14T21:22:27;102335.81;;;4.29;100.00
47897;BME280;39629;51.400;5.494;2023-12-14T21:27:29;102339.47;;;4.32;100.00
47897;BME280;39629;51.400;5.494;2023-12-14T21:32:48;102336.19;;;4.36;100.00
47897;BME280;39629;51.400;5.494;2023-12-14T21:37:50;102328.50;;;4.39;100.00
47897;BME280;39629;51.400;5.494;2023-12-14T21:42:52;102330.38;;;4.42;100.00
47897;BME280;39629;51.400;5.494;2023-12-14T21:47:55;102333.25;;;4.48;100.00
47897;BME280;39629;51.400;5.494;2023-12-14T21:52:56;102338.69;;;4.53;100.00
47897;BME280;39629;51.400;5.494;2023-12-14T21:57:58;102343.06;;;4.54;100.00
47897;BME280;39629;51.400;5.494;2023-12-14T22:03:01;102331.94;;;4.58;100.00
47897;BME280;39629;51.400;5.494;2023-12-14T22:08:03;102324.81;;;4.54;100.00
47897;BME280;39629;51.400;5.494;2023-12-14T22:13:05;102335.03;;;4.49;100.00
47897;BME280;39629;51.400;5.494;2023-12-14T22:18:08;102326.28;;;4.47;100.00
47897;BME280;39629;51.400;5.494;2023-12-14T22:23:09;102330.44;;;4.43;100.00
47897;BME280;39629;51.400;5.494;2023-12-14T22:28:11;102347.63;;;4.40;100.00
47897;BME280;39629;51.400;5.494;2023-12-14T22:33:15;102365.06;;;4.41;100.00
47897;BME280;39629;51.400;5.494;2023-12-14T22:38:17;102368.72;;;4.45;100.00
47897;BME280;39629;51.400;5.494;2023-12-14T22:43:19;102378.59;;;4.52;100.00
47897;BME280;39629;51.400;5.494;2023-12-14T22:48:22;102384.09;;;4.58;100.00
47897;BME280;39629;51.400;5.494;2023-12-14T22:53:23;102394.09;;;4.67;100.00
47897;BME280;39629;51.400;5.494;2023-12-14T22:58:25;102396.75;;;4.68;100.00
47897;BME280;39629;51.400;5.494;2023-12-14T23:03:28;102403.78;;;4.69;100.00
47897;BME280;39629;51.400;5.494;2023-12-14T23:08:30;102416.13;;;4.73;100.00
47897;BME280;39629;51.400;5.494;2023-12-14T23:13:32;102417.28;;;4.80;100.00
47897;BME280;39629;51.400;5.494;2023-12-14T23:18:35;102420.13;;;4.85;100.00
47897;BME280;39629;51.400;5.494;2023-12-14T23:23:37;102427.28;;;4.89;100.00
47897;BME280;39629;51.400;5.494;2023-12-14T23:28:39;102411.69;;;4.90;100.00
47897;BME280;39629;51.400;5.494;2023-12-14T23:33:42;102405.56;;;4.90;100.00
47897;BME280;39629;51.400;5.494;2023-12-14T23:38:43;102407.28;;;4.89;100.00
47897;BME280;39629;51.400;5.494;2023-12-14T23:43:45;102422.19;;;4.92;100.00
47897;BME280;39629;51.400;5.494;2023-12-14T23:48:48;102434.41;;;4.93;100.00
47897;BME280;39629;51.400;5.494;2023-12-14T23:53:50;102438.84;;;4.96;100.00
47897;BME280;39629;51.400;5.494;2023-12-14T23:58:52;102446.78;;;4.97;100.00
